Time;durP1;ratioP1;P1;durP2;ratioP2;P2;SDS_P1;SDS_P2;PMS_P1;PMS_P2;Temp;Humidity;BMP_temperature;BMP_pressure;BME280_temperature;BME280_humidity;BME280_pressure;Samples;Min_cycle;Max_cycle;Signal;HPM_P1;HPM_P2
2022/04/02 00:00:06;;;;;;;56.58;33.28;;;;;;;1.63;100.00;100203.22;8363148;28;20041;-63
2022/04/02 00:04:07;;;;;;;57.85;34.10;;;;;;;1.61;100.00;100202.47;8362422;28;20497;-64
2022/04/02 00:08:08;;;;;;;60.60;34.67;;;;;;;1.62;100.00;100211.31;8362717;28;20040;-64
2022/04/02 00:12:08;;;;;;;66.80;33.60;;;;;;;1.61;100.00;100205.13;8363004;28;20038;-64
2022/04/02 00:16:09;;;;;;;58.72;32.97;;;;;;;1.62;100.00;100206.00;8362300;28;20029;-64
2022/04/02 00:20:10;;;;;;;54.90;32.80;;;;;;;1.60;100.00;100219.41;8362068;28;20038;-64
2022/04/02 00:24:10;;;;;;;60.55;32.63;;;;;;;1.61;100.00;100220.22;8340284;28;20033;-64
2022/04/02 00:28:11;;;;;;;55.90;29.80;;;;;;;1.59;100.00;100206.19;8361780;28;20072;-64
2022/04/02 00:32:11;;;;;;;52.38;29.20;;;;;;;1.57;100.00;100214.25;8359283;28;20045;-64
2022/04/02 00:36:13;;;;;;;48.80;28.48;;;;;;;1.55;100.00;100220.59;8364795;28;20083;-64
2022/04/02 00:40:13;;;;;;;46.90;27.70;;;;;;;1.52;100.00;100216.31;8361856;28;20421;-64
2022/04/02 00:44:17;;;;;;;48.33;26.85;;;;;;;1.53;100.00;100209.22;8343168;28;20116;-64
2022/04/02 00:48:18;;;;;;;48.77;28.47;;;;;;;1.51;100.00;100208.44;8360224;28;20119;-64
2022/04/02 00:52:20;;;;;;;47.75;26.83;;;;;;;1.50;100.00;100212.06;8361195;28;20508;-64
2022/04/02 00:56:20;;;;;;;43.58;24.88;;;;;;;1.49;100.00;100221.84;8360709;28;20120;-64
2022/04/02 01:00:21;;;;;;;45.63;26.15;;;;;;;1.50;100.00;100230.69;8359585;28;20036;-64
2022/04/02 01:04:21;;;;;;;46.47;26.27;;;;;;;1.50;100.00;100217.38;8360357;28;20120;-64
2022/04/02 01:08:22;;;;;;;42.05;23.83;;;;;;;1.45;100.00;100209.66;8359438;28;20545;-64
2022/04/02 01:12:25;;;;;;;40.13;21.65;;;;;;;1.46;100.00;100213.16;8342949;28;20039;-64
2022/04/02 01:16:27;;;;;;;36.90;21.92;;;;;;;1.50;100.00;100230.69;8344386;28;20028;-64
2022/04/02 01:20:29;;;;;;;38.42;20.25;;;;;;;1.48;100.00;100221.94;8360302;28;20036;-64
2022/04/02 01:24:30;;;;;;;33.88;19.80;;;;;;;1.45;100.00;100219.44;8356829;28;20048;-64
2022/04/02 01:28:33;;;;;;;30.98;18.30;;;;;;;1.44;100.00;100221.25;8357650;28;20473;-64
2022/04/02 01:32:34;;;;;;;37.83;20.63;;;;;;;1.43;100.00;100221.31;8357095;28;20041;-64
2022/04/02 01:36:34;;;;;;;33.42;17.30;;;;;;;1.42;100.00;100225.81;8357796;28;20045;-64
2022/04/02 01:40:35;;;;;;;31.20;17.88;;;;;;;1.40;100.00;100222.38;8356413;28;20041;-64
2022/04/02 01:44:36;;;;;;;30.42;16.45;;;;;;;1.39;100.00;100225.13;8356472;28;20069;-64
2022/04/02 01:48:36;;;;;;;27.98;16.67;;;;;;;1.42;100.00;100219.63;8355694;28;20040;-64
2022/04/02 01:52:36;;;;;;;27.90;17.10;;;;;;;1.42;100.00;100222.28;8358910;28;20063;-64
2022/04/02 01:56:37;;;;;;;30.55;16.80;;;;;;;1.41;100.00;100228.56;8354536;28;20059;-64
2022/04/02 02:00:38;;;;;;;30.65;15.82;;;;;;;1.41;100.00;100228.56;8356804;28;20040;-64
2022/04/02 02:04:38;;;;;;;25.08;15.68;;;;;;;1.42;100.00;100224.94;8354379;28;20094;-64
2022/04/02 02:08:39;;;;;;;27.52;15.48;;;;;;;1.45;100.00;100233.63;8348917;28;20061;-64
2022/04/02 02:12:39;;;;;;;28.00;15.38;;;;;;;1.41;100.00;100226.75;8357656;28;20040;-64
2022/04/02 02:16:40;;;;;;;31.30;16.40;;;;;;;1.37;100.00;100229.72;8358525;28;20040;-64
2022/04/02 02:20:40;;;;;;;26.95;14.85;;;;;;;1.39;100.00;100243.78;8356286;28;20033;-63
2022/04/02 02:24:41;;;;;;;27.67;15.45;;;;;;;1.35;100.00;100235.13;8359155;28;20493;-63
2022/04/02 02:28:43;;;;;;;28.45;15.82;;;;;;;1.37;100.00;100240.34;8358835;28;20037;-63
2022/04/02 02:32:45;;;;;;;25.77;16.77;;;;;;;1.38;100.00;100242.06;8355433;28;20390;-63
2022/04/02 02:36:45;;;;;;;25.80;15.95;;;;;;;1.34;100.00;100253.84;8354731;28;20405;-63
2022/04/02 02:40:48;;;;;;;26.10;14.20;;;;;;;1.36;100.00;100254.59;8358240;28;20028;-63
2022/04/02 02:44:48;;;;;;;25.67;13.00;;;;;;;1.34;100.00;100248.53;8363199;28;20037;-63
2022/04/02 02:48:48;;;;;;;24.75;13.48;;;;;;;1.31;100.00;100256.69;8356401;28;20051;-63
2022/04/02 02:52:49;;;;;;;24.88;13.10;;;;;;;1.31;100.00;100259.34;8353210;28;20045;-63
2022/04/02 02:56:49;;;;;;;18.23;11.65;;;;;;;1.28;100.00;100256.88;8362995;28;20110;-63
2022/04/02 03:00:50;;;;;;;21.70;11.07;;;;;;;1.26;100.00;100264.94;8363633;28;20565;-63
2022/04/02 03:04:50;;;;;;;21.63;10.30;;;;;;;1.22;100.00;100271.38;8364618;28;20037;-63
2022/04/02 03:08:51;;;;;;;19.52;9.40;;;;;;;1.23;100.00;100275.78;8364853;28;20086;-63
2022/04/02 03:12:53;;;;;;;15.70;9.23;;;;;;;1.25;100.00;100267.69;8363917;28;20068;-63
2022/04/02 03:16:53;;;;;;;18.75;7.97;;;;;;;1.23;100.00;100280.22;8364292;28;20047;-63
2022/04/02 03:20:53;;;;;;;10.98;7.13;;;;;;;1.25;100.00;100281.84;8364290;28;20051;-63
2022/04/02 03:24:54;;;;;;;14.65;8.25;;;;;;;1.21;100.00;100279.44;8363405;28;20120;-63
2022/04/02 03:28:54;;;;;;;14.10;7.75;;;;;;;1.21;100.00;100275.00;8362793;28;20025;-62
2022/04/02 03:32:55;;;;;;;14.63;8.18;;;;;;;1.22;100.00;100286.50;8361843;28;20069;-62
2022/04/02 03:36:56;;;;;;;18.90;8.82;;;;;;;1.20;100.00;100283.06;8363316;28;20441;-61
2022/04/02 03:40:57;;;;;;;14.38;8.15;;;;;;;1.21;100.00;100292.75;8361837;28;20045;-61
2022/04/02 03:44:57;;;;;;;14.95;7.55;;;;;;;1.19;100.00;100286.69;8362872;28;20036;-61
2022/04/02 03:48:57;;;;;;;19.27;8.65;;;;;;;1.20;100.00;100283.94;8361757;28;20045;-61
2022/04/02 03:52:58;;;;;;;15.73;8.10;;;;;;;1.23;100.00;100288.22;8343224;28;20450;-61
2022/04/02 03:56:58;;;;;;;16.30;7.65;;;;;;;1.22;100.00;100289.16;8362703;28;20048;-62
2022/04/02 04:00:59;;;;;;;20.63;7.88;;;;;;;1.24;100.00;100287.25;8362904;28;20051;-62
2022/04/02 04:04:59;;;;;;;14.70;7.57;;;;;;;1.22;100.00;100297.16;8360486;28;20120;-62
2022/04/02 04:09:00;;;;;;;13.68;7.50;;;;;;;1.26;100.00;100293.38;8361495;28;20120;-62
2022/04/02 04:13:01;;;;;;;11.93;5.97;;;;;;;1.24;100.00;100301.44;8360762;28;20091;-62
2022/04/02 04:17:02;;;;;;;10.15;6.60;;;;;;;1.23;100.00;100299.72;8350460;28;20045;-62
2022/04/02 04:21:03;;;;;;;9.93;5.90;;;;;;;1.25;100.00;100302.31;8358842;28;20068;-62
2022/04/02 04:25:04;;;;;;;11.02;5.95;;;;;;;1.28;100.00;100302.13;8361678;28;20039;-62
2022/04/02 04:29:04;;;;;;;10.68;5.78;;;;;;;1.30;100.00;100306.41;8360966;28;20508;-62
2022/04/02 04:33:05;;;;;;;8.77;4.55;;;;;;;1.38;100.00;100303.31;8359761;28;20052;-62
2022/04/02 04:37:05;;;;;;;8.98;4.35;;;;;;;1.37;100.00;100318.41;8361512;28;20033;-62
2022/04/02 04:41:06;;;;;;;5.82;3.70;;;;;;;1.38;100.00;100328.16;8361088;28;20045;-62
2022/04/02 04:45:06;;;;;;;9.65;4.00;;;;;;;1.40;100.00;100330.72;8358040;28;20044;-62
2022/04/02 04:49:09;;;;;;;11.98;4.43;;;;;;;1.34;100.00;100329.25;8357168;28;20033;-62
2022/04/02 04:53:10;;;;;;;7.93;4.43;;;;;;;1.31;100.00;100341.91;8346002;28;20040;-62
2022/04/02 04:57:10;;;;;;;7.35;4.30;;;;;;;1.29;100.00;100351.75;8353538;28;20041;-62
2022/04/02 05:01:12;;;;;;;10.75;4.95;;;;;;;1.26;100.00;100354.59;8356451;28;20060;-62
2022/04/02 05:05:13;;;;;;;14.30;5.95;;;;;;;1.21;100.00;100353.97;8360212;28;20044;-62
2022/04/02 05:09:13;;;;;;;6.97;4.10;;;;;;;1.21;100.00;100356.66;8353668;28;20041;-62
2022/04/02 05:13:15;;;;;;;12.43;5.13;;;;;;;1.21;100.00;100359.31;8356590;28;20128;-62
2022/04/02 05:17:17;;;;;;;9.23;5.10;;;;;;;1.16;100.00;100359.56;8355756;28;20029;-62
2022/04/02 05:21:17;;;;;;;10.23;5.00;;;;;;;1.14;100.00;100355.28;8356953;28;20187;-62
2022/04/02 05:25:18;;;;;;;7.22;4.50;;;;;;;1.19;100.00;100372.69;8354700;28;20033;-62
2022/04/02 05:29:18;;;;;;;7.70;4.05;;;;;;;1.19;100.00;100377.19;8355587;28;20037;-62
2022/04/02 05:33:19;;;;;;;11.88;4.82;;;;;;;1.18;100.00;100376.31;8355870;28;20047;-62
2022/04/02 05:37:20;;;;;;;7.32;4.10;;;;;;;1.17;100.00;100384.38;8353782;28;20040;-62
2022/04/02 05:41:21;;;;;;;9.85;4.53;;;;;;;1.15;100.00;100389.81;8356073;28;20502;-62
2022/04/02 05:45:21;;;;;;;5.68;3.90;;;;;;;1.18;100.00;100391.41;8355987;28;20040;-62
2022/04/02 05:49:22;;;;;;;8.60;4.28;;;;;;;1.22;100.00;100403.63;8353546;28;20045;-62
2022/04/02 05:53:23;;;;;;;10.45;4.70;;;;;;;1.22;100.00;100408.97;8348484;28;20041;-62
2022/04/02 05:57:23;;;;;;;8.98;4.55;;;;;;;1.21;100.00;100407.22;8345814;28;20059;-62
2022/04/02 06:01:24;;;;;;;8.40;4.50;;;;;;;1.30;100.00;100417.38;8348117;28;20041;-62
2022/04/02 06:05:24;;;;;;;8.77;3.88;;;;;;;1.26;100.00;100410.50;8345905;28;20045;-62
2022/04/02 06:09:25;;;;;;;7.55;3.83;;;;;;;1.36;100.00;100431.22;8349062;28;20040;-62
2022/04/02 06:13:25;;;;;;;7.82;4.35;;;;;;;1.38;100.00;100433.78;8354368;28;20094;-62
2022/04/02 06:17:26;;;;;;;7.63;3.67;;;;;;;1.45;100.00;100443.16;8354051;28;20037;-63
2022/04/02 06:21:27;;;;;;;6.72;3.60;;;;;;;1.44;100.00;100447.59;8354304;28;20424;-63
2022/04/02 06:25:27;;;;;;;6.47;3.13;;;;;;;1.50;100.00;100449.09;8352597;28;20102;-62
2022/04/02 06:29:27;;;;;;;5.90;3.15;;;;;;;1.55;100.00;100444.34;8352896;28;20065;-62
2022/04/02 06:33:28;;;;;;;10.75;4.22;;;;;;;1.58;100.00;100454.81;8352946;28;20128;-62
2022/04/02 06:37:34;;;;;;;8.30;3.45;;;;;;;1.60;100.00;100463.59;8353890;28;20598;-62
2022/04/02 06:41:34;;;;;;;6.85;3.55;;;;;;;1.64;100.00;100462.47;8347566;28;20090;-62
2022/04/02 06:45:35;;;;;;;4.78;3.22;;;;;;;1.66;100.00;100473.91;8342711;28;20068;-62
2022/04/02 06:49:36;;;;;;;9.65;4.40;;;;;;;1.72;100.00;100473.56;8351604;28;20037;-62
2022/04/02 06:53:36;;;;;;;5.25;3.15;;;;;;;1.75;99.56;100479.59;8354167;28;20040;-62
2022/04/02 06:57:44;;;;;;;9.32;3.75;;;;;;;1.81;100.00;100481.06;8353706;28;20087;-62
2022/04/02 07:01:45;;;;;;;8.77;3.90;;;;;;;1.82;100.00;100488.09;8350437;28;20047;-63
2022/04/02 07:05:45;;;;;;;6.90;3.83;;;;;;;1.85;100.00;100490.59;8352388;28;20033;-62
2022/04/02 07:09:46;;;;;;;6.80;3.85;;;;;;;1.84;99.35;100499.53;8347060;28;20041;-63
2022/04/02 07:13:46;;;;;;;6.80;3.65;;;;;;;1.88;98.05;100496.59;8343796;28;20520;-63
2022/04/02 07:17:46;;;;;;;5.13;3.28;;;;;;;1.91;100.00;100506.22;8347313;28;20112;-63
2022/04/02 07:21:47;;;;;;;5.65;3.78;;;;;;;1.88;100.00;100495.75;8351453;28;20436;-63
2022/04/02 07:25:49;;;;;;;7.28;3.63;;;;;;;1.90;99.97;100488.53;8353921;28;20044;-63
2022/04/02 07:29:52;;;;;;;7.22;3.72;;;;;;;2.04;100.00;100505.44;8337255;28;20043;-62
2022/04/02 07:33:53;;;;;;;9.33;3.53;;;;;;;2.06;99.14;100521.34;8342834;28;20402;-62
2022/04/02 07:38:09;;;;;;;6.18;3.28;;;;;;;2.13;98.44;100522.72;8356594;28;20036;-62
2022/04/02 07:42:35;;;;;;;5.03;3.50;;;;;;;2.14;97.72;100519.13;8354071;28;20063;-62
2022/04/02 07:46:42;;;;;;;5.97;3.72;;;;;;;2.23;95.37;100523.94;8341910;28;20040;-62
2022/04/02 07:50:44;;;;;;;5.78;3.25;;;;;;;2.23;94.46;100528.41;8353734;28;20041;-62
2022/04/02 07:54:47;;;;;;;3.88;3.33;;;;;;;2.24;96.58;100536.31;8354066;28;20063;-63
2022/04/02 07:58:52;;;;;;;9.73;3.45;;;;;;;2.33;94.39;100546.44;8360820;28;20033;-63
2022/04/02 08:02:52;;;;;;;6.35;3.95;;;;;;;2.41;93.88;100554.00;8358890;28;20270;-63
2022/04/02 08:06:53;;;;;;;6.88;4.07;;;;;;;2.47;94.75;100564.31;8361276;28;20045;-63
2022/04/02 08:10:54;;;;;;;6.43;3.35;;;;;;;2.49;90.92;100552.59;8359768;28;20051;-63
2022/04/02 08:14:56;;;;;;;6.70;3.08;;;;;;;2.43;89.87;100552.97;8362564;28;20509;-63
2022/04/02 08:18:57;;;;;;;6.65;3.45;;;;;;;2.45;89.74;100555.53;8364451;28;20033;-64
2022/04/02 08:22:57;;;;;;;11.43;4.15;;;;;;;2.47;90.54;100565.16;8365893;28;20040;-64
2022/04/02 08:27:07;;;;;;;5.43;3.35;;;;;;;2.57;88.97;100566.38;8355292;28;20040;-64
2022/04/02 08:31:34;;;;;;;7.10;4.05;;;;;;;2.65;86.77;100564.09;8358424;28;20051;-64
2022/04/02 08:40:39;;;;;;;6.07;4.13;;;;;;;2.95;87.91;100572.09;8345291;27;20388;-63
2022/04/02 08:45:01;;;;;;;6.43;4.28;;;;;;;3.11;86.15;100584.44;8318056;28;20045;-63
2022/04/02 08:54:01;;;;;;;7.07;4.20;;;;;;;2.94;87.13;100583.75;8374151;27;20130;-64
2022/04/02 08:58:08;;;;;;;7.47;4.38;;;;;;;2.90;84.02;100590.22;8341678;28;20048;-65
2022/04/02 09:02:49;;;;;;;6.55;4.07;;;;;;;2.84;85.07;100602.09;8337184;28;20132;-65
2022/04/02 09:07:24;;;;;;;7.68;4.78;;;;;;;2.89;85.67;100597.34;8326997;28;20053;-65
2022/04/02 09:11:57;;;;;;;7.35;4.00;;;;;;;3.02;86.78;100610.84;8335154;28;20555;-65
2022/04/02 09:16:05;;;;;;;9.13;4.18;;;;;;;3.07;85.14;100612.28;8328362;28;20060;-65
2022/04/02 09:24:48;;;;;;;8.68;4.05;;;;;;;3.03;82.54;100620.56;8316227;27;20404;-63
2022/04/02 09:29:14;;;;;;;7.53;4.20;;;;;;;3.17;84.35;100632.16;8310883;28;20050;-66
2022/04/02 09:33:42;;;;;;;8.02;4.53;;;;;;;3.38;83.23;100625.53;8301857;28;20490;-66
2022/04/02 09:38:22;;;;;;;13.35;4.60;;;;;;;3.34;84.21;100634.69;8309145;28;20284;-64
2022/04/02 09:42:33;;;;;;;7.40;4.50;;;;;;;3.31;82.40;100639.34;8306953;28;20034;-62
2022/04/02 09:51:11;;;;;;;6.72;3.72;;;;;;;3.22;82.82;100639.88;8385904;27;20417;-63
2022/04/02 09:55:14;;;;;;;8.05;3.45;;;;;;;3.29;84.16;100650.13;8369577;28;20049;-65
2022/04/02 09:59:30;;;;;;;7.10;3.45;;;;;;;3.44;82.14;100661.69;8356661;28;20512;-65
2022/04/02 10:03:45;;;;;;;10.20;3.92;;;;;;;3.68;80.88;100663.75;8361938;28;20361;-62
2022/04/02 10:08:11;;;;;;;4.50;2.95;;;;;;;3.85;79.89;100679.59;8360617;28;20041;-63
2022/04/02 10:12:14;;;;;;;6.18;3.17;;;;;;;3.94;78.34;100667.50;8331154;28;20041;-63
2022/04/02 10:16:21;;;;;;;7.43;3.37;;;;;;;3.93;77.47;100663.94;8340618;28;20044;-63
2022/04/02 10:20:28;;;;;;;5.43;3.50;;;;;;;3.83;77.83;100665.50;8333727;28;20076;-64
2022/04/02 10:24:36;;;;;;;4.78;3.78;;;;;;;3.90;78.41;100661.47;8338633;28;20501;-64
2022/04/02 10:33:36;;;;;;;8.57;3.97;;;;;;;4.51;76.42;100658.44;8279777;28;20395;-65
2022/04/02 10:37:31;;;;;;;4.40;2.95;;;;;;;5.52;76.05;100659.66;8309256;28;20053;-64
2022/04/02 10:41:31;;;;;;;4.20;3.38;;;;;;;5.41;72.56;100656.84;8308168;28;20103;-64
2022/04/02 10:45:39;;;;;;;3.42;3.05;;;;;;;5.12;73.16;100650.75;8307413;28;20037;-65
2022/04/02 10:49:42;;;;;;;5.93;3.17;;;;;;;5.24;72.59;100655.28;8300414;28;20030;-64
2022/04/02 10:53:44;;;;;;;5.22;2.83;;;;;;;4.65;72.89;100655.72;8223076;28;20042;-64
2022/04/02 10:57:44;;;;;;;4.57;3.03;;;;;;;4.62;75.39;100660.41;8245044;28;20039;-65
2022/04/02 11:01:49;;;;;;;7.25;3.50;;;;;;;4.68;74.19;100668.06;8244586;28;20093;-65
2022/04/02 11:05:51;;;;;;;7.20;3.22;;;;;;;5.02;73.05;100662.19;8244208;28;20590;-65
2022/04/02 11:09:52;;;;;;;5.93;3.58;;;;;;;5.07;71.03;100665.44;8242224;28;20044;-65
2022/04/02 11:14:01;;;;;;;5.53;2.92;;;;;;;4.82;71.98;100668.03;8243504;28;20055;-65
2022/04/02 11:18:01;;;;;;;8.00;4.05;;;;;;;5.19;71.06;100668.13;8262505;28;20062;-65
2022/04/02 11:22:07;;;;;;;4.05;2.90;;;;;;;5.18;71.67;100670.91;8274087;28;20041;-65
2022/04/02 11:26:09;;;;;;;5.60;3.22;;;;;;;4.88;72.07;100678.34;8284061;28;20042;-65
2022/04/02 11:30:11;;;;;;;9.25;3.42;;;;;;;4.67;74.17;100674.38;8243562;28;20053;-65
2022/04/02 11:34:17;;;;;;;7.80;3.58;;;;;;;4.71;75.11;100670.53;8245498;28;20409;-65
2022/04/02 11:42:35;;;;;;;3.72;2.88;;;;;;;4.93;70.41;100673.50;8335323;27;20404;-64
2022/04/02 11:46:59;;;;;;;6.85;2.97;;;;;;;5.00;69.27;100666.81;8352506;28;20124;-65
2022/04/02 11:51:19;;;;;;;6.03;4.45;;;;;;;5.86;70.03;100675.16;8341980;28;20049;-66
2022/04/02 11:55:20;;;;;;;7.60;4.32;;;;;;;5.59;69.90;100674.34;8358306;28;20545;-65
2022/04/02 11:59:21;;;;;;;8.57;4.47;;;;;;;5.08;72.03;100676.06;8347336;28;20060;-66
2022/04/02 12:03:25;;;;;;;8.93;4.60;;;;;;;5.04;71.73;100668.31;8350999;28;20542;-65
2022/04/02 12:07:40;;;;;;;6.07;4.10;;;;;;;5.08;70.96;100669.81;8350102;28;20032;-65
2022/04/02 12:11:43;;;;;;;8.57;4.60;;;;;;;5.07;71.47;100673.47;8350814;28;20118;-65
2022/04/02 12:16:06;;;;;;;9.07;4.30;;;;;;;5.05;72.68;100672.69;8346281;28;20057;-64
2022/04/02 12:20:08;;;;;;;7.65;4.10;;;;;;;5.01;71.97;100668.53;8327904;28;20472;-64
2022/04/02 12:24:09;;;;;;;6.30;4.28;;;;;;;4.94;70.85;100677.94;8320562;28;20047;-64
2022/04/02 12:28:16;;;;;;;6.07;4.55;;;;;;;4.90;71.74;100677.25;8333578;28;20127;-65
2022/04/02 12:32:41;;;;;;;7.75;4.78;;;;;;;4.77;73.21;100691.56;8336175;28;20108;-65
2022/04/02 12:36:43;;;;;;;5.13;3.92;;;;;;;4.66;74.55;100689.56;8345230;28;20041;-65
2022/04/02 12:40:44;;;;;;;7.22;4.63;;;;;;;4.70;74.58;100693.75;8336887;28;20113;-65
2022/04/02 12:44:45;;;;;;;10.52;5.15;;;;;;;4.73;76.96;100711.47;8350020;28;20045;-65
2022/04/02 12:48:46;;;;;;;7.15;4.88;;;;;;;4.85;76.95;100705.31;8352016;28;20040;-65
2022/04/02 12:52:48;;;;;;;8.98;5.65;;;;;;;4.78;77.75;100704.84;8334832;28;20322;-65
2022/04/02 12:56:50;;;;;;;8.93;5.35;;;;;;;4.68;75.79;100710.91;8329607;28;20386;-65
2022/04/02 13:00:51;;;;;;;8.35;5.30;;;;;;;4.70;75.03;100717.03;8339326;28;20041;-65
2022/04/02 13:04:54;;;;;;;8.23;5.57;;;;;;;4.78;73.93;100714.69;8335003;28;20044;-65
2022/04/02 13:09:01;;;;;;;6.90;4.45;;;;;;;4.95;74.34;100703.75;8326524;28;22106;-65
2022/04/02 13:13:03;;;;;;;8.40;4.80;;;;;;;5.07;74.86;100713.66;8321522;28;20488;-65
2022/04/02 13:17:19;;;;;;;7.60;5.10;;;;;;;4.80;75.39;100712.78;8341028;28;20124;-65
2022/04/02 13:21:23;;;;;;;7.97;5.38;;;;;;;4.58;78.05;100723.16;8319290;28;20033;-65
2022/04/02 13:25:26;;;;;;;10.55;6.03;;;;;;;4.44;80.42;100723.16;8327018;28;20554;-65
2022/04/02 13:29:56;;;;;;;9.02;6.00;;;;;;;4.34;80.88;100732.72;8339918;28;20041;-66
2022/04/02 13:34:17;;;;;;;9.63;5.95;;;;;;;4.43;82.17;100722.31;8319492;28;20482;-65
2022/04/02 13:38:55;;;;;;;11.60;6.65;;;;;;;4.38;81.56;100726.22;8317369;28;20346;-65
2022/04/02 13:42:58;;;;;;;8.38;5.35;;;;;;;4.34;81.22;100728.25;8341393;28;20049;-66
2022/04/02 13:47:06;;;;;;;8.63;6.20;;;;;;;4.33;81.81;100733.69;8322253;28;20045;-66
2022/04/02 13:51:14;;;;;;;10.88;5.95;;;;;;;4.29;81.45;100737.50;8318731;28;20045;-65
2022/04/02 13:55:17;;;;;;;8.18;5.85;;;;;;;4.32;82.58;100746.22;8325884;28;20485;-65
2022/04/02 13:59:25;;;;;;;11.02;5.35;;;;;;;4.28;82.37;100741.16;8321854;28;20413;-66
2022/04/02 14:03:29;;;;;;;8.30;6.00;;;;;;;4.18;82.56;100737.34;8300615;28;20593;-65
2022/04/02 14:07:32;;;;;;;6.63;5.07;;;;;;;4.20;81.57;100746.13;8307846;28;20044;-65
2022/04/02 14:11:38;;;;;;;9.48;5.50;;;;;;;4.27;81.50;100742.13;8319644;28;20047;-65
2022/04/02 14:15:42;;;;;;;6.60;5.00;;;;;;;4.43;81.42;100740.19;8332749;28;20063;-65
2022/04/02 14:19:47;;;;;;;7.50;5.30;;;;;;;4.53;79.47;100747.53;8335029;28;20512;-65
2022/04/02 14:24:25;;;;;;;7.43;5.57;;;;;;;4.80;80.30;100750.28;8326516;28;20140;-65
2022/04/02 14:29:05;;;;;;;6.80;5.05;;;;;;;4.96;77.65;100734.94;8330486;28;20219;-65
2022/04/02 14:33:34;;;;;;;6.18;4.30;;;;;;;5.06;76.19;100730.72;8329036;28;20041;-65
2022/04/02 14:38:15;;;;;;;5.63;4.35;;;;;;;5.14;74.85;100739.94;8326838;28;20049;-65
2022/04/02 14:42:51;;;;;;;5.30;4.72;;;;;;;5.23;73.77;100727.75;8322566;28;20041;-65
2022/04/02 14:47:28;;;;;;;6.45;4.30;;;;;;;5.30;73.02;100734.41;8323122;28;20139;-65
2022/04/02 14:52:08;;;;;;;8.13;4.40;;;;;;;5.36;72.88;100734.00;8327688;28;20040;-65
2022/04/02 14:56:34;;;;;;;6.60;4.78;;;;;;;5.32;72.45;100732.50;8332373;28;20800;-65
2022/04/02 15:01:14;;;;;;;7.03;4.57;;;;;;;5.24;72.98;100734.81;8320649;28;20110;-66
2022/04/02 15:05:54;;;;;;;4.88;4.30;;;;;;;5.09;73.07;100738.53;8325071;28;20049;-66
2022/04/02 15:14:17;;;;;;;6.13;5.30;;;;;;;4.82;73.24;100759.09;8359043;27;20405;-66
2022/04/02 15:18:28;;;;;;;6.83;4.73;;;;;;;4.73;75.22;100765.03;8349440;28;20059;-66
2022/04/02 15:22:29;;;;;;;8.38;5.20;;;;;;;4.69;74.78;100763.47;8317380;28;20052;-66
2022/04/02 15:26:29;;;;;;;6.72;4.85;;;;;;;4.72;74.23;100755.25;8337347;28;20052;-64
2022/04/02 15:30:33;;;;;;;13.27;5.93;;;;;;;4.76;73.91;100760.31;8355868;28;20590;-64
2022/04/02 15:34:43;;;;;;;11.50;5.10;;;;;;;4.83;73.73;100767.03;8337971;28;20049;-65
2022/04/02 15:39:00;;;;;;;5.82;4.15;;;;;;;4.86;73.00;100765.94;8325806;28;20155;-65
2022/04/02 15:43:06;;;;;;;11.57;4.18;;;;;;;4.90;70.21;100767.47;8324133;28;20072;-65
2022/04/02 15:47:46;;;;;;;11.02;6.38;;;;;;;4.89;69.03;100771.97;8329265;28;20039;-65
2022/04/02 15:56:04;;;;;;;5.38;3.83;;;;;;;4.87;66.79;100778.38;8365489;27;20425;-64
2022/04/02 16:00:13;;;;;;;8.45;3.92;;;;;;;4.81;66.99;100773.41;8355732;28;20037;-64
2022/04/02 16:04:18;;;;;;;5.07;4.03;;;;;;;4.77;67.53;100777.25;8350236;28;20334;-64
2022/04/02 16:08:20;;;;;;;5.88;3.75;;;;;;;4.81;67.90;100773.41;8346283;28;20257;-64
2022/04/02 16:12:28;;;;;;;5.88;4.10;;;;;;;4.91;67.21;100774.56;8333150;28;20068;-66
2022/04/02 16:16:30;;;;;;;4.47;3.35;;;;;;;4.97;67.23;100776.84;8334054;28;20078;-65
2022/04/02 16:20:31;;;;;;;4.85;3.50;;;;;;;4.95;66.01;100778.75;8331202;28;21067;-65
2022/04/02 16:24:31;;;;;;;7.30;4.28;;;;;;;4.95;65.86;100781.44;8347390;28;20424;-65
2022/04/02 16:28:35;;;;;;;4.63;3.70;;;;;;;4.98;66.64;100790.16;8360952;28;20052;-64
2022/04/02 16:32:36;;;;;;;6.85;4.68;;;;;;;5.04;66.92;100794.22;8354098;28;20068;-66
2022/04/02 16:36:39;;;;;;;4.30;3.90;;;;;;;5.07;66.94;100796.72;8359449;28;20476;-65
2022/04/02 16:40:40;;;;;;;6.75;4.20;;;;;;;5.15;66.49;100799.75;8361497;28;20048;-65
2022/04/02 16:44:44;;;;;;;5.30;4.10;;;;;;;5.24;68.46;100799.16;8357907;28;20124;-65
2022/04/02 16:48:44;;;;;;;5.43;3.97;;;;;;;5.28;69.00;100803.38;8354230;28;20151;-65
2022/04/02 16:52:51;;;;;;;5.78;4.20;;;;;;;5.30;68.98;100810.34;8361023;28;20082;-65
2022/04/02 16:56:51;;;;;;;6.28;5.63;;;;;;;5.20;68.86;100803.00;8369187;28;20041;-65
2022/04/02 17:00:52;;;;;;;5.80;4.63;;;;;;;5.20;69.73;100808.34;8378326;28;20036;-66
2022/04/02 17:04:55;;;;;;;7.03;4.97;;;;;;;5.13;70.99;100817.75;8372554;28;20256;-66
2022/04/02 17:08:55;;;;;;;9.00;4.95;;;;;;;5.00;69.15;100811.47;8337912;28;20459;-66
2022/04/02 17:12:59;;;;;;;7.63;6.25;;;;;;;4.94;71.54;100818.06;8332214;28;20066;-66
2022/04/02 17:17:03;;;;;;;12.23;5.18;;;;;;;4.72;73.94;100823.06;8351499;28;20513;-66
2022/04/02 17:21:12;;;;;;;8.53;4.87;;;;;;;4.48;76.20;100826.44;8358758;28;20037;-66
2022/04/02 17:25:12;;;;;;;6.65;4.95;;;;;;;4.48;74.32;100823.75;8355014;28;20037;-66
2022/04/02 17:29:23;;;;;;;9.15;5.93;;;;;;;4.36;74.65;100829.84;8345139;28;20041;-66
2022/04/02 17:33:25;;;;;;;11.75;6.97;;;;;;;4.34;75.08;100826.41;8366472;28;20098;-66
2022/04/02 17:37:44;;;;;;;8.52;6.40;;;;;;;4.38;74.55;100830.59;8371104;28;20040;-66
2022/04/02 17:41:45;;;;;;;10.57;6.32;;;;;;;4.27;76.54;100838.44;8336380;28;20038;-66
2022/04/02 17:45:49;;;;;;;11.27;7.20;;;;;;;4.29;78.10;100842.75;8354888;28;20036;-66
2022/04/02 17:49:50;;;;;;;9.40;7.18;;;;;;;4.31;78.22;100848.00;8358732;28;20131;-66
2022/04/02 17:53:51;;;;;;;10.13;6.63;;;;;;;4.33;77.86;100846.09;8355189;28;20037;-66
2022/04/02 17:58:13;;;;;;;11.18;7.50;;;;;;;4.40;78.65;100852.78;8354151;28;20520;-66
2022/04/02 18:02:14;;;;;;;11.15;7.50;;;;;;;4.39;79.33;100867.13;8351046;28;20154;-66
2022/04/02 18:06:31;;;;;;;12.18;8.18;;;;;;;4.39;81.50;100864.47;8347013;28;20570;-66
2022/04/02 18:10:33;;;;;;;12.27;9.10;;;;;;;4.28;83.74;100869.59;8355029;28;20053;-66
2022/04/02 18:14:34;;;;;;;10.90;8.63;;;;;;;4.33;81.47;100867.50;8349730;28;20045;-66
2022/04/02 18:18:35;;;;;;;13.05;9.57;;;;;;;4.29;82.40;100873.97;8339090;28;20505;-66
2022/04/02 18:22:38;;;;;;;16.58;11.20;;;;;;;4.14;86.88;100877.59;8348358;28;20038;-66
2022/04/02 18:26:39;;;;;;;13.82;9.23;;;;;;;3.92;90.08;100878.88;8342867;28;20174;-66
2022/04/02 18:30:39;;;;;;;13.75;8.60;;;;;;;3.78;90.23;100886.81;8349386;28;20048;-66
2022/04/02 18:34:39;;;;;;;13.43;8.30;;;;;;;3.70;88.61;100894.44;8325992;28;20037;-66
2022/04/02 18:38:40;;;;;;;14.40;8.65;;;;;;;3.57;90.56;100896.06;8346568;28;20037;-66
2022/04/02 18:42:41;;;;;;;14.35;10.13;;;;;;;3.41;91.79;100902.38;8340780;28;20469;-66
2022/04/02 18:46:41;;;;;;;12.07;9.15;;;;;;;3.16;92.94;100913.56;8350569;28;20047;-66
2022/04/02 18:50:42;;;;;;;13.15;8.32;;;;;;;3.07;94.41;100918.53;8344907;28;20125;-66
2022/04/02 18:54:43;;;;;;;12.55;8.45;;;;;;;3.11;94.33;100923.63;8351276;28;20041;-66
2022/04/02 18:58:43;;;;;;;13.82;8.80;;;;;;;3.22;98.16;100928.38;8355719;28;20043;-66
2022/04/02 19:02:44;;;;;;;10.93;8.02;;;;;;;3.29;95.08;100925.28;8351482;28;20052;-66
2022/04/02 19:06:44;;;;;;;14.10;7.72;;;;;;;3.38;93.85;100943.50;8338704;28;20048;-66
2022/04/02 19:10:45;;;;;;;13.50;8.82;;;;;;;3.32;98.37;100941.16;8337089;28;20124;-66
2022/04/02 19:14:45;;;;;;;14.85;8.10;;;;;;;3.49;93.33;100946.44;8331353;28;20099;-66
2022/04/02 19:18:45;;;;;;;16.02;7.50;;;;;;;3.49;92.03;100946.44;8377473;28;20031;-66
2022/04/02 19:22:46;;;;;;;14.55;8.07;;;;;;;3.65;88.60;100944.63;8360465;28;20572;-66
2022/04/02 19:26:47;;;;;;;17.23;8.63;;;;;;;3.60;89.35;100954.69;8349791;28;20131;-66
2022/04/02 19:30:47;;;;;;;12.43;8.13;;;;;;;3.46;92.55;100954.63;8346550;28;20123;-66
2022/04/02 19:34:48;;;;;;;12.02;8.50;;;;;;;3.21;93.03;100964.94;8346229;28;20048;-66